createdAt,value
2024-02-22T00:00:18.970Z,442.00
2024-02-22T00:01:19.043Z,441.00
2024-02-22T00:02:19.050Z,441.00
2024-02-22T00:03:18.959Z,441.00
2024-02-22T00:04:19.079Z,440.00
2024-02-22T00:05:19.192Z,439.00
2024-02-22T00:06:19.092Z,438.00
2024-02-22T00:07:19.066Z,441.00
2024-02-22T00:08:19.132Z,441.00
2024-02-22T00:09:19.078Z,441.00
2024-02-22T00:10:19.124Z,440.00
2024-02-22T00:11:19.320Z,440.00
2024-02-22T00:12:19.181Z,439.00
2024-02-22T00:13:19.211Z,438.00
2024-02-22T00:14:19.228Z,438.00
2024-02-22T00:15:19.253Z,436.00
2024-02-22T00:16:21.867Z,435.00
2024-02-22T00:17:19.305Z,435.00
2024-02-22T00:18:19.352Z,437.00
2024-02-22T00:19:19.348Z,437.00
2024-02-22T00:20:19.335Z,437.00
2024-02-22T00:21:19.286Z,435.00
2024-02-22T00:22:19.261Z,436.00
2024-02-22T00:23:19.308Z,436.00
2024-02-22T00:24:19.272Z,434.00
2024-02-22T00:25:21.687Z,435.00
2024-02-22T00:26:19.328Z,436.00
2024-02-22T00:27:19.293Z,436.00
2024-02-22T00:28:19.256Z,438.00
2024-02-22T00:29:19.320Z,438.00
2024-02-22T00:30:22.079Z,438.00
2024-02-22T00:31:19.314Z,438.00
2024-02-22T00:32:19.314Z,438.00
2024-02-22T00:33:19.297Z,437.00
2024-02-22T00:34:19.394Z,439.00
2024-02-22T00:35:19.332Z,439.00
2024-02-22T00:36:19.288Z,438.00
2024-02-22T00:37:19.298Z,436.00
2024-02-22T00:38:19.330Z,436.00
2024-02-22T00:39:19.287Z,436.00
2024-02-22T00:40:19.316Z,434.00
2024-02-22T00:41:22.459Z,436.00
2024-02-22T00:42:19.274Z,435.00
2024-02-22T00:43:19.339Z,436.00
2024-02-22T00:44:19.347Z,435.00
2024-02-22T00:45:19.262Z,434.00
2024-02-22T00:46:19.326Z,433.00
2024-02-22T00:47:19.311Z,432.00
2024-02-22T00:48:19.427Z,432.00
2024-02-22T00:49:19.421Z,431.00
2024-02-22T00:50:19.452Z,429.00
2024-02-22T00:51:19.339Z,430.00
2024-02-22T00:52:19.304Z,430.00
2024-02-22T00:53:19.369Z,429.00
2024-02-22T00:54:19.286Z,428.00
2024-02-22T00:55:19.307Z,429.00
2024-02-22T00:56:19.399Z,429.00
2024-02-22T00:57:19.310Z,429.00
2024-02-22T00:58:19.276Z,432.00
2024-02-22T00:59:19.324Z,430.00
2024-02-22T01:00:19.289Z,431.00
2024-02-22T01:01:19.408Z,433.00
2024-02-22T01:02:19.361Z,432.00
2024-02-22T01:03:19.327Z,429.00
2024-02-22T01:04:19.396Z,430.00
2024-02-22T01:05:19.454Z,430.00
2024-02-22T01:06:19.409Z,429.00
2024-02-22T01:07:19.328Z,430.00
2024-02-22T01:08:19.350Z,430.00
2024-02-22T01:09:19.306Z,430.00
2024-02-22T01:10:19.331Z,429.00
2024-02-22T01:11:19.522Z,430.00
2024-02-22T01:12:19.346Z,430.00
2024-02-22T01:13:19.353Z,431.00
2024-02-22T01:14:19.331Z,431.00
2024-02-22T01:15:19.317Z,430.00
2024-02-22T01:16:19.319Z,431.00
2024-02-22T01:17:19.402Z,432.00
2024-02-22T01:18:19.400Z,432.00
2024-02-22T01:19:19.500Z,433.00
2024-02-22T01:20:19.350Z,432.00
2024-02-22T01:21:19.338Z,430.00
2024-02-22T01:22:19.337Z,430.00
2024-02-22T01:23:19.458Z,428.00
2024-02-22T01:24:19.346Z,429.00
2024-02-22T01:25:19.300Z,427.00
2024-02-22T01:26:19.471Z,426.00
2024-02-22T01:27:19.324Z,424.00
2024-02-22T01:28:19.318Z,425.00
2024-02-22T01:29:19.369Z,426.00
2024-02-22T01:30:19.309Z,427.00
2024-02-22T01:31:19.355Z,425.00
2024-02-22T01:32:19.423Z,426.00
2024-02-22T01:33:19.433Z,428.00
2024-02-22T01:34:19.355Z,430.00
2024-02-22T01:35:19.570Z,430.00
2024-02-22T01:36:19.309Z,432.00
2024-02-22T01:37:19.318Z,433.00
2024-02-22T01:38:19.432Z,433.00
2024-02-22T01:39:19.348Z,435.00
2024-02-22T01:40:19.355Z,435.00
2024-02-22T01:41:19.417Z,435.00
2024-02-22T01:42:19.333Z,434.00
2024-02-22T01:43:19.336Z,433.00
2024-02-22T01:44:19.442Z,432.00
2024-02-22T01:45:19.315Z,431.00
2024-02-22T01:46:19.347Z,433.00
2024-02-22T01:47:19.359Z,432.00
2024-02-22T01:48:19.600Z,432.00
2024-02-22T01:49:19.452Z,432.00
2024-02-22T01:50:19.551Z,431.00
2024-02-22T01:51:19.363Z,428.00
2024-02-22T01:52:19.369Z,428.00
2024-02-22T01:53:19.397Z,428.00
2024-02-22T01:54:19.314Z,427.00
2024-02-22T01:55:19.492Z,430.00
2024-02-22T01:56:19.528Z,430.00
2024-02-22T01:57:19.351Z,430.00
2024-02-22T01:58:19.377Z,429.00
2024-02-22T01:59:19.407Z,429.00
2024-02-22T02:00:19.729Z,428.00
2024-02-22T02:01:19.455Z,428.00
2024-02-22T02:02:19.455Z,428.00
2024-02-22T02:03:19.475Z,428.00
2024-02-22T02:04:19.370Z,428.00
2024-02-22T02:05:19.402Z,428.00
2024-02-22T02:06:19.524Z,430.00
2024-02-22T02:07:19.394Z,429.00
2024-02-22T02:08:19.366Z,428.00
2024-02-22T02:09:19.351Z,427.00
2024-02-22T02:10:19.405Z,429.00
2024-02-22T02:11:19.455Z,432.00
2024-02-22T02:12:19.366Z,432.00
2024-02-22T02:13:19.383Z,430.00
2024-02-22T02:14:19.424Z,429.00
2024-02-22T02:15:19.432Z,427.00
2024-02-22T02:16:19.359Z,426.00
2024-02-22T02:17:19.856Z,428.00
2024-02-22T02:18:19.596Z,431.00
2024-02-22T02:19:19.498Z,431.00
2024-02-22T02:20:19.575Z,429.00
2024-02-22T02:21:19.409Z,430.00
2024-02-22T02:22:19.387Z,431.00
2024-02-22T02:23:19.443Z,432.00
2024-02-22T02:24:19.400Z,433.00
2024-02-22T02:25:19.480Z,433.00
2024-02-22T02:26:19.450Z,433.00
2024-02-22T02:27:19.413Z,433.00
2024-02-22T02:28:19.391Z,433.00
2024-02-22T02:29:19.443Z,433.00
2024-02-22T02:30:19.420Z,431.00
2024-02-22T02:31:19.428Z,432.00
2024-02-22T02:32:19.519Z,433.00
2024-02-22T02:33:19.459Z,431.00
2024-02-22T02:34:19.447Z,430.00
2024-02-22T02:35:19.503Z,429.00
2024-02-22T02:36:19.425Z,428.00
2024-02-22T02:37:19.403Z,428.00
2024-02-22T02:38:19.432Z,428.00
2024-02-22T02:39:19.396Z,428.00
2024-02-22T02:40:19.411Z,428.00
2024-02-22T02:41:19.449Z,429.00
2024-02-22T02:42:19.389Z,428.00
2024-02-22T02:43:19.403Z,430.00
2024-02-22T02:44:19.495Z,430.00
2024-02-22T02:45:19.398Z,430.00
2024-02-22T02:46:19.381Z,428.00
2024-02-22T02:47:19.510Z,428.00
2024-02-22T02:48:19.405Z,428.00
2024-02-22T02:49:19.483Z,429.00
2024-02-22T02:50:19.440Z,429.00
2024-02-22T02:51:19.410Z,429.00
2024-02-22T02:52:19.397Z,429.00
2024-02-22T02:53:19.623Z,429.00
2024-02-22T02:54:19.407Z,429.00
2024-02-22T02:55:19.381Z,430.00
2024-02-22T02:56:19.490Z,431.00
2024-02-22T02:57:19.413Z,430.00
2024-02-22T02:58:19.394Z,427.00
2024-02-22T02:59:19.482Z,427.00
2024-02-22T03:00:19.449Z,425.00
2024-02-22T03:01:19.550Z,424.00
2024-02-22T03:02:19.474Z,424.00
2024-02-22T03:03:19.426Z,424.00
2024-02-22T03:04:19.526Z,423.00
2024-02-22T03:05:19.531Z,423.00
2024-02-22T03:06:19.481Z,424.00
2024-02-22T03:07:19.417Z,426.00
2024-02-22T03:08:19.458Z,426.00
2024-02-22T03:09:19.405Z,426.00
2024-02-22T03:10:19.416Z,427.00
2024-02-22T03:11:19.563Z,428.00
2024-02-22T03:12:19.468Z,428.00
2024-02-22T03:13:19.434Z,429.00
2024-02-22T03:14:19.486Z,429.00
2024-02-22T03:15:19.485Z,430.00
2024-02-22T03:16:19.528Z,433.00
2024-02-22T03:17:19.557Z,431.00
2024-02-22T03:18:19.540Z,431.00
2024-02-22T03:19:19.536Z,430.00
2024-02-22T03:20:19.660Z,428.00
2024-02-22T03:21:19.572Z,428.00
2024-02-22T03:22:19.602Z,429.00
2024-02-22T03:23:19.709Z,428.00
2024-02-22T03:24:19.647Z,429.00
2024-02-22T03:25:19.711Z,429.00
2024-02-22T03:26:19.759Z,429.00
2024-02-22T03:27:19.699Z,430.00
2024-02-22T03:28:19.739Z,431.00
2024-02-22T03:29:19.901Z,430.00
2024-02-22T03:30:19.769Z,431.00
2024-02-22T03:31:19.815Z,430.00
2024-02-22T03:32:19.879Z,429.00
2024-02-22T03:33:19.848Z,429.00
2024-02-22T03:34:19.919Z,428.00
2024-02-22T03:35:20.077Z,428.00
2024-02-22T03:36:19.937Z,428.00
2024-02-22T03:37:19.922Z,431.00
2024-02-22T03:38:20.033Z,432.00
2024-02-22T03:39:19.997Z,432.00
2024-02-22T03:40:20.015Z,432.00
2024-02-22T03:41:20.046Z,431.00
2024-02-22T03:42:20.080Z,429.00
2024-02-22T03:43:20.058Z,430.00
2024-02-22T03:44:20.170Z,432.00
2024-02-22T03:45:20.109Z,433.00
2024-02-22T03:46:20.156Z,433.00
2024-02-22T03:47:20.196Z,432.00
2024-02-22T03:48:20.264Z,433.00
2024-02-22T03:49:20.260Z,434.00
2024-02-22T03:50:20.253Z,432.00
2024-02-22T03:51:20.298Z,432.00
2024-02-22T03:52:20.266Z,431.00
2024-02-22T03:53:20.369Z,433.00
2024-02-22T03:54:20.355Z,432.00
2024-02-22T03:55:20.393Z,431.00
2024-02-22T03:56:20.435Z,430.00
2024-02-22T03:57:20.390Z,428.00
2024-02-22T03:58:20.411Z,426.00
2024-02-22T03:59:20.548Z,426.00
2024-02-22T04:00:20.458Z,428.00
2024-02-22T04:01:20.536Z,427.00
2024-02-22T04:02:20.549Z,429.00
2024-02-22T04:03:20.541Z,428.00
2024-02-22T04:04:20.598Z,428.00
2024-02-22T04:05:20.650Z,426.00
2024-02-22T04:06:20.666Z,426.00
2024-02-22T04:07:20.668Z,424.00
2024-02-22T04:08:20.749Z,423.00
2024-02-22T04:09:20.685Z,423.00
2024-02-22T04:10:20.703Z,424.00
2024-02-22T04:11:20.917Z,424.00
2024-02-22T04:12:20.806Z,426.00
2024-02-22T04:13:20.803Z,427.00
2024-02-22T04:14:20.836Z,429.00
2024-02-22T04:15:20.832Z,425.00
2024-02-22T04:16:20.855Z,424.00
2024-02-22T04:17:20.932Z,424.00
2024-02-22T04:18:21.042Z,424.00
2024-02-22T04:19:21.096Z,422.00
2024-02-22T04:20:21.018Z,423.00
2024-02-22T04:21:20.980Z,422.00
2024-02-22T04:22:21.017Z,425.00
2024-02-22T04:23:21.195Z,426.00
2024-02-22T04:24:21.082Z,427.00
2024-02-22T04:25:21.080Z,430.00
2024-02-22T04:26:21.156Z,427.00
2024-02-22T04:27:21.125Z,427.00
2024-02-22T04:28:28.361Z,432.00
2024-02-22T04:29:28.353Z,431.00
2024-02-22T04:30:28.366Z,429.00
2024-02-22T04:31:35.693Z,430.00
2024-02-22T04:32:35.619Z,433.00
2024-02-22T04:33:35.585Z,433.00
2024-02-22T04:34:35.669Z,434.00
2024-02-22T04:35:35.657Z,432.00
2024-02-22T04:36:35.617Z,431.00
2024-02-22T04:37:35.660Z,431.00
2024-02-22T04:38:35.645Z,427.00
2024-02-22T04:39:35.597Z,427.00
2024-02-22T04:40:35.619Z,428.00
2024-02-22T04:41:35.684Z,426.00
2024-02-22T04:42:35.614Z,430.00
2024-02-22T04:43:35.637Z,431.00
2024-02-22T04:44:35.593Z,431.00
2024-02-22T04:45:35.586Z,432.00
2024-02-22T04:46:35.655Z,431.00
2024-02-22T04:47:35.618Z,429.00
2024-02-22T04:48:35.725Z,427.00
2024-02-22T04:49:35.629Z,427.00
2024-02-22T04:50:35.593Z,427.00
2024-02-22T04:51:35.695Z,430.00
2024-02-22T04:52:35.687Z,430.00
2024-02-22T04:53:35.587Z,428.00
2024-02-22T04:54:41.382Z,428.00
2024-02-22T04:55:36.633Z,427.00
2024-02-22T04:56:35.628Z,429.00
2024-02-22T04:57:35.615Z,430.00
2024-02-22T04:58:35.651Z,432.00
2024-02-22T04:59:35.589Z,429.00
2024-02-22T05:00:35.792Z,428.00
2024-02-22T05:01:35.698Z,425.00
2024-02-22T05:02:35.663Z,421.00
2024-02-22T05:03:35.667Z,421.00
2024-02-22T05:04:35.644Z,420.00
2024-02-22T05:05:35.659Z,420.00
2024-02-22T05:06:35.641Z,421.00
2024-02-22T05:07:35.740Z,421.00
2024-02-22T05:08:37.684Z,421.00
2024-02-22T05:09:35.761Z,421.00
2024-02-22T05:10:35.997Z,420.00
2024-02-22T05:11:35.943Z,418.00
2024-02-22T05:12:35.821Z,419.00
2024-02-22T05:13:35.907Z,421.00
2024-02-22T05:14:35.851Z,421.00
2024-02-22T05:15:35.901Z,420.00
2024-02-22T05:16:36.043Z,420.00
2024-02-22T05:17:35.997Z,420.00
2024-02-22T05:18:36.114Z,424.00
2024-02-22T05:19:36.122Z,425.00
2024-02-22T05:20:36.048Z,424.00
2024-02-22T05:21:36.099Z,425.00
2024-02-22T05:22:36.243Z,422.00
2024-02-22T05:23:36.257Z,422.00
2024-02-22T05:24:36.299Z,424.00
2024-02-22T05:25:36.244Z,424.00
2024-02-22T05:26:36.212Z,421.00
2024-02-22T05:27:39.234Z,421.00
2024-02-22T05:28:36.306Z,422.00
2024-02-22T05:29:36.272Z,422.00
2024-02-22T05:30:36.270Z,423.00
2024-02-22T05:31:36.374Z,422.00
2024-02-22T05:32:36.289Z,421.00
2024-02-22T05:33:36.384Z,417.00
2024-02-22T05:34:36.399Z,416.00
2024-02-22T05:35:36.276Z,419.00
2024-02-22T05:36:36.256Z,424.00
2024-02-22T05:37:36.530Z,422.00
2024-02-22T05:38:36.271Z,422.00
2024-02-22T05:39:36.277Z,421.00
2024-02-22T05:40:36.309Z,421.00
2024-02-22T05:41:36.333Z,417.00
2024-02-22T05:42:36.271Z,419.00
2024-02-22T05:43:36.341Z,417.00
2024-02-22T05:44:36.295Z,418.00
2024-02-22T05:45:36.331Z,418.00
2024-02-22T05:46:36.318Z,419.00
2024-02-22T05:47:36.419Z,421.00
2024-02-22T05:48:36.354Z,420.00
2024-02-22T05:49:36.359Z,420.00
2024-02-22T05:50:36.289Z,417.00
2024-02-22T05:51:36.273Z,415.00
2024-02-22T05:52:36.373Z,416.00
2024-02-22T05:53:36.264Z,414.00
2024-02-22T05:54:36.256Z,415.00
2024-02-22T05:55:36.320Z,416.00
2024-02-22T05:56:36.344Z,416.00
2024-02-22T05:57:36.301Z,413.00
2024-02-22T05:58:36.280Z,413.00
2024-02-22T05:59:36.291Z,415.00
2024-02-22T06:00:36.426Z,416.00
2024-02-22T06:01:36.528Z,416.00
2024-02-22T06:02:36.356Z,417.00
2024-02-22T06:03:36.315Z,416.00
2024-02-22T06:04:36.412Z,417.00
2024-02-22T06:05:36.417Z,416.00
2024-02-22T06:06:36.281Z,418.00
2024-02-22T06:07:36.327Z,419.00
2024-02-22T06:08:36.372Z,423.00
2024-02-22T06:09:36.313Z,423.00
2024-02-22T06:10:36.466Z,423.00
2024-02-22T06:11:36.809Z,425.00
2024-02-22T06:12:36.282Z,425.00
2024-02-22T06:13:36.381Z,427.00
2024-02-22T06:14:36.287Z,426.00
2024-02-22T06:15:36.276Z,426.00
2024-02-22T06:16:36.308Z,425.00
2024-02-22T06:17:36.375Z,426.00
2024-02-22T06:18:38.523Z,423.00
2024-02-22T06:19:36.491Z,422.00
2024-02-22T06:20:36.483Z,421.00
2024-02-22T06:21:36.532Z,419.00
2024-02-22T06:22:36.596Z,419.00
2024-02-22T06:23:36.541Z,418.00
2024-02-22T06:24:36.612Z,420.00
2024-02-22T06:25:36.625Z,419.00
2024-02-22T06:26:36.640Z,421.00
2024-02-22T06:27:36.676Z,421.00
2024-02-22T06:28:36.698Z,420.00
2024-02-22T06:29:36.714Z,422.00
2024-02-22T06:30:36.746Z,422.00
2024-02-22T06:31:36.873Z,423.00
2024-02-22T06:32:36.804Z,423.00
2024-02-22T06:33:36.949Z,421.00
2024-02-22T06:35:36.888Z,423.00
2024-02-22T06:36:36.896Z,421.00
2024-02-22T06:37:36.956Z,422.00
2024-02-22T06:38:36.945Z,428.00
2024-02-22T06:39:36.984Z,435.00
2024-02-22T06:40:37.034Z,438.00
2024-02-22T06:41:37.050Z,454.00
2024-02-22T06:42:37.044Z,486.00
2024-02-22T06:43:37.102Z,538.00
2024-02-22T06:44:37.076Z,556.00
2024-02-22T06:45:37.165Z,662.00
2024-02-22T06:46:37.144Z,600.00
2024-02-22T06:47:37.169Z,602.00
2024-02-22T06:48:37.282Z,632.00
2024-02-22T06:49:37.222Z,641.00
2024-02-22T06:50:37.209Z,669.00
2024-02-22T06:51:37.303Z,722.00
2024-02-22T06:52:37.247Z,719.00
2024-02-22T06:53:37.224Z,718.00
2024-02-22T06:54:37.210Z,814.00
2024-02-22T06:55:37.244Z,812.00
2024-02-22T06:56:37.278Z,824.00
2024-02-22T06:57:37.427Z,804.00
2024-02-22T06:58:37.436Z,808.00
2024-02-22T06:59:37.443Z,825.00
2024-02-22T07:00:37.549Z,842.00
2024-02-22T07:01:37.685Z,849.00
2024-02-22T07:02:37.617Z,866.00
2024-02-22T07:03:37.685Z,884.00
2024-02-22T07:04:37.878Z,922.00
2024-02-22T07:05:37.917Z,935.00
2024-02-22T07:06:37.868Z,949.00
2024-02-22T07:07:37.917Z,968.00
2024-02-22T07:08:38.779Z,979.00
2024-02-22T07:09:37.941Z,1016.00
2024-02-22T07:10:38.038Z,1031.00
2024-02-22T07:11:38.181Z,1035.00
2024-02-22T07:12:38.039Z,1039.00
2024-02-22T07:13:38.061Z,999.00
2024-02-22T07:14:38.109Z,1008.00
2024-02-22T07:15:38.142Z,985.00
2024-02-22T07:16:38.285Z,993.00
2024-02-22T07:17:38.301Z,1023.00
2024-02-22T07:18:38.374Z,1016.00
2024-02-22T07:19:38.362Z,1011.00
2024-02-22T07:20:38.417Z,1001.00
2024-02-22T07:21:38.393Z,997.00
2024-02-22T07:22:40.072Z,991.00
2024-02-22T07:23:38.408Z,985.00
2024-02-22T07:24:38.427Z,983.00
2024-02-22T07:25:38.451Z,994.00
2024-02-22T07:26:38.443Z,1006.00
2024-02-22T07:27:38.392Z,1011.00
2024-02-22T07:28:38.461Z,1016.00
2024-02-22T07:29:38.493Z,1019.00
2024-02-22T07:30:38.433Z,1033.00
2024-02-22T07:31:38.476Z,1034.00
2024-02-22T07:32:38.407Z,1035.00
2024-02-22T07:33:38.490Z,1045.00
2024-02-22T07:34:38.575Z,1059.00
2024-02-22T07:35:38.504Z,1061.00
2024-02-22T07:36:38.431Z,1057.00
2024-02-22T07:37:38.463Z,1047.00
2024-02-22T07:38:38.464Z,1029.00
2024-02-22T07:39:38.423Z,1039.00
2024-02-22T07:40:38.472Z,1037.00
2024-02-22T07:41:38.435Z,1032.00
2024-02-22T07:42:38.452Z,1025.00
2024-02-22T07:43:38.457Z,1024.00
2024-02-22T07:44:38.415Z,1037.00
2024-02-22T07:45:38.498Z,1046.00
2024-02-22T07:46:38.524Z,1082.00
2024-02-22T07:47:38.469Z,1091.00
2024-02-22T07:48:38.481Z,1018.00
2024-02-22T07:49:38.551Z,1006.00
2024-02-22T07:50:38.432Z,1017.00
2024-02-22T07:52:38.458Z,1028.00
2024-02-22T07:53:38.481Z,1016.00
2024-02-22T07:54:38.502Z,1029.00
2024-02-22T07:55:38.538Z,1039.00
2024-02-22T07:56:38.436Z,1044.00
2024-02-22T07:57:38.441Z,1050.00
2024-02-22T07:58:38.462Z,1059.00
2024-02-22T07:59:38.429Z,1066.00
2024-02-22T08:00:38.548Z,1060.00
2024-02-22T08:01:38.495Z,1103.00
2024-02-22T08:02:38.518Z,1088.00
2024-02-22T08:03:38.541Z,1124.00
2024-02-22T08:04:38.538Z,1101.00
2024-02-22T08:05:38.548Z,1096.00
2024-02-22T08:06:38.522Z,1103.00
2024-02-22T08:07:38.472Z,1107.00
2024-02-22T08:08:38.508Z,1140.00
2024-02-22T08:09:39.312Z,1113.00
2024-02-22T08:10:38.528Z,1122.00
2024-02-22T08:11:38.556Z,1129.00
2024-02-22T08:12:38.474Z,1127.00
2024-02-22T08:13:38.521Z,1128.00
2024-02-22T08:14:38.460Z,1117.00
2024-02-22T08:15:38.504Z,1098.00
2024-02-22T08:16:38.504Z,1095.00
2024-02-22T08:17:38.582Z,1097.00
2024-02-22T08:18:38.494Z,1139.00
2024-02-22T08:19:38.591Z,1146.00
2024-02-22T08:20:38.712Z,1137.00
2024-02-22T08:21:38.514Z,1130.00
2024-02-22T08:22:38.523Z,1126.00
2024-02-22T08:23:38.487Z,1134.00
2024-02-22T08:24:38.465Z,1141.00
2024-02-22T08:25:38.549Z,1151.00
2024-02-22T08:26:38.494Z,1158.00
2024-02-22T08:27:46.510Z,1165.00
2024-02-22T08:28:39.550Z,1177.00
2024-02-22T08:29:38.462Z,1187.00
2024-02-22T08:30:38.490Z,1190.00
2024-02-22T08:31:38.637Z,1197.00
2024-02-22T08:32:38.578Z,1202.00
2024-02-22T08:33:38.578Z,1211.00
2024-02-22T08:34:38.556Z,1210.00
2024-02-22T08:35:38.519Z,1215.00
2024-02-22T08:36:38.510Z,1220.00
2024-02-22T08:37:38.470Z,1226.00
2024-02-22T08:38:38.498Z,1228.00
2024-02-22T08:39:38.487Z,1232.00
2024-02-22T08:40:40.329Z,1242.00
2024-02-22T08:41:38.737Z,1153.00
2024-02-22T08:42:38.493Z,1122.00
2024-02-22T08:43:38.554Z,1131.00
2024-02-22T08:44:38.516Z,1190.00
2024-02-22T08:45:38.506Z,1194.00
2024-02-22T08:46:38.566Z,1384.00
2024-02-22T08:47:38.607Z,1218.00
2024-02-22T08:48:38.551Z,1180.00
2024-02-22T08:49:38.582Z,1112.00
2024-02-22T08:50:38.486Z,1103.00
2024-02-22T08:51:38.576Z,1090.00
2024-02-22T08:52:38.595Z,1081.00
2024-02-22T08:53:38.558Z,1065.00
2024-02-22T08:54:38.621Z,1056.00
2024-02-22T08:55:38.690Z,1051.00
2024-02-22T08:56:38.779Z,1055.00
2024-02-22T08:57:50.864Z,1053.00
2024-02-22T08:58:39.872Z,1041.00
2024-02-22T08:59:38.710Z,1016.00
2024-02-22T09:00:38.743Z,998.00
2024-02-22T09:01:38.723Z,992.00
2024-02-22T09:02:38.721Z,990.00
2024-02-22T09:03:38.711Z,989.00
2024-02-22T09:04:38.735Z,991.00
2024-02-22T09:05:38.727Z,986.00
2024-02-22T09:06:38.905Z,980.00
2024-02-22T09:07:38.865Z,900.00
2024-02-22T09:08:38.714Z,903.00
2024-02-22T09:09:38.729Z,894.00
2024-02-22T09:10:38.815Z,887.00
2024-02-22T09:11:39.009Z,871.00
2024-02-22T09:12:38.900Z,852.00
2024-02-22T09:13:39.047Z,848.00
2024-02-22T09:14:39.041Z,850.00
2024-02-22T09:15:39.114Z,846.00
2024-02-22T09:16:39.231Z,846.00
2024-02-22T09:17:39.338Z,841.00
2024-02-22T09:18:39.462Z,837.00
2024-02-22T09:19:39.431Z,832.00
2024-02-22T09:20:39.427Z,824.00
2024-02-22T09:21:39.472Z,819.00
2024-02-22T09:22:39.516Z,813.00
2024-02-22T09:23:39.505Z,804.00
2024-02-22T09:24:39.603Z,797.00
2024-02-22T09:25:39.551Z,794.00
2024-02-22T09:26:39.544Z,792.00
2024-02-22T09:27:39.541Z,792.00
2024-02-22T09:28:39.589Z,791.00
2024-02-22T09:29:39.609Z,789.00
2024-02-22T09:30:39.703Z,786.00
2024-02-22T09:31:39.737Z,777.00
2024-02-22T09:32:39.779Z,773.00
2024-02-22T09:33:39.859Z,773.00
2024-02-22T09:34:39.948Z,761.00
2024-02-22T09:35:39.828Z,758.00
2024-02-22T09:36:39.849Z,776.00
2024-02-22T09:37:40.827Z,774.00
2024-02-22T09:38:39.935Z,768.00
2024-02-22T09:39:39.903Z,774.00
2024-02-22T09:40:40.012Z,844.00
2024-02-22T09:41:40.040Z,831.00
2024-02-22T09:42:40.045Z,791.00
2024-02-22T09:43:40.115Z,782.00
2024-02-22T09:44:40.138Z,824.00
2024-02-22T09:45:40.157Z,837.00
2024-02-22T09:46:40.216Z,839.00
2024-02-22T09:47:40.356Z,852.00
2024-02-22T09:48:40.481Z,926.00
2024-02-22T09:49:40.393Z,870.00
2024-02-22T09:50:40.535Z,1048.00
2024-02-22T09:51:40.531Z,1010.00
2024-02-22T09:52:40.683Z,1001.00
2024-02-22T09:53:40.647Z,920.00
2024-02-22T09:54:40.707Z,922.00
2024-02-22T09:55:40.829Z,910.00
2024-02-22T09:56:40.798Z,886.00
2024-02-22T09:57:40.865Z,874.00
2024-02-22T09:58:40.919Z,872.00
2024-02-22T09:59:40.945Z,867.00
2024-02-22T10:00:40.967Z,886.00
2024-02-22T10:01:41.042Z,898.00
2024-02-22T10:02:40.998Z,888.00
2024-02-22T10:03:41.176Z,878.00
2024-02-22T10:04:41.112Z,872.00
2024-02-22T10:05:41.186Z,875.00
2024-02-22T10:06:41.229Z,873.00
2024-02-22T10:07:41.290Z,853.00
2024-02-22T10:08:43.669Z,854.00
2024-02-22T10:09:41.175Z,866.00
2024-02-22T10:10:41.251Z,890.00
2024-02-22T10:11:41.249Z,885.00
2024-02-22T10:12:41.608Z,880.00
2024-02-22T10:13:41.241Z,896.00
2024-02-22T10:14:41.288Z,896.00
2024-02-22T10:15:41.173Z,897.00
2024-02-22T10:16:41.191Z,902.00
2024-02-22T10:17:41.273Z,901.00
2024-02-22T10:18:41.253Z,892.00
2024-02-22T10:19:41.212Z,883.00
2024-02-22T10:20:44.685Z,879.00
2024-02-22T10:21:41.205Z,865.00
2024-02-22T10:22:41.295Z,864.00
2024-02-22T10:23:41.212Z,864.00
2024-02-22T10:24:41.169Z,869.00
2024-02-22T10:25:41.491Z,888.00
2024-02-22T10:26:41.185Z,896.00
2024-02-22T10:27:41.150Z,891.00
2024-02-22T10:28:41.246Z,900.00
2024-02-22T10:29:41.176Z,907.00
2024-02-22T10:30:41.208Z,909.00
2024-02-22T10:31:41.217Z,908.00
2024-02-22T10:32:41.903Z,905.00
2024-02-22T10:33:41.200Z,936.00
2024-02-22T10:34:41.296Z,918.00
2024-02-22T10:35:41.210Z,908.00
2024-02-22T10:36:41.211Z,883.00
2024-02-22T10:37:41.473Z,880.00
2024-02-22T10:38:41.185Z,874.00
2024-02-22T10:39:41.178Z,876.00
2024-02-22T10:40:41.251Z,974.00
2024-02-22T10:41:41.213Z,968.00
2024-02-22T10:42:41.719Z,929.00
2024-02-22T10:43:41.231Z,933.00
2024-02-22T10:44:41.192Z,959.00
2024-02-22T10:45:41.211Z,1016.00
2024-02-22T10:46:41.892Z,1029.00
2024-02-22T10:47:41.255Z,1035.00
2024-02-22T10:48:41.269Z,1023.00
2024-02-22T10:49:41.243Z,1008.00
2024-02-22T10:50:41.201Z,932.00
2024-02-22T10:51:41.210Z,948.00
2024-02-22T10:52:41.439Z,957.00
2024-02-22T10:53:41.221Z,998.00
2024-02-22T10:54:41.175Z,1009.00
2024-02-22T10:55:41.255Z,1012.00
2024-02-22T10:56:41.220Z,952.00
2024-02-22T10:57:41.186Z,970.00
2024-02-22T10:58:41.185Z,972.00
2024-02-22T10:59:41.165Z,971.00
2024-02-22T11:00:41.280Z,953.00
2024-02-22T11:01:41.233Z,914.00
2024-02-22T11:02:41.204Z,934.00
2024-02-22T11:03:41.251Z,922.00
2024-02-22T11:04:41.232Z,952.00
2024-02-22T11:05:41.218Z,962.00
2024-02-22T11:06:41.221Z,968.00
2024-02-22T11:07:41.218Z,960.00
2024-02-22T11:08:41.233Z,975.00
2024-02-22T11:09:41.184Z,964.00
2024-02-22T11:10:41.259Z,956.00
2024-02-22T11:11:41.352Z,946.00
2024-02-22T11:12:41.230Z,928.00
2024-02-22T11:13:41.235Z,923.00
2024-02-22T11:14:41.264Z,910.00
2024-02-22T11:15:41.301Z,924.00
2024-02-22T11:16:41.407Z,918.00
2024-02-22T11:17:41.455Z,914.00
2024-02-22T11:18:41.506Z,930.00
2024-02-22T11:19:41.600Z,921.00
2024-02-22T11:20:41.614Z,915.00
2024-02-22T11:21:41.692Z,917.00
2024-02-22T11:22:41.775Z,871.00
2024-02-22T11:23:42.090Z,925.00
2024-02-22T11:24:41.883Z,922.00
2024-02-22T11:25:41.979Z,915.00
2024-02-22T11:26:42.012Z,909.00
2024-02-22T11:27:42.098Z,877.00
2024-02-22T11:28:42.201Z,885.00
2024-02-22T11:29:42.228Z,877.00
2024-02-22T11:30:42.473Z,898.00
2024-02-22T11:31:42.412Z,867.00
2024-02-22T11:32:42.542Z,905.00
2024-02-22T11:33:42.698Z,910.00
2024-02-22T11:34:42.690Z,910.00
2024-02-22T11:35:42.708Z,944.00
2024-02-22T11:36:42.747Z,962.00
2024-02-22T11:37:42.845Z,1030.00
2024-02-22T11:38:42.916Z,1012.00
2024-02-22T11:39:42.956Z,1013.00
2024-02-22T11:40:43.047Z,1016.00
2024-02-22T11:41:43.024Z,1012.00
2024-02-22T11:42:43.066Z,1007.00
2024-02-22T11:43:43.251Z,1011.00
2024-02-22T11:44:43.172Z,1032.00
2024-02-22T11:45:43.255Z,1041.00
2024-02-22T11:46:43.385Z,1047.00
2024-02-22T11:47:43.400Z,1046.00
2024-02-22T11:48:43.512Z,1041.00
2024-02-22T11:49:43.602Z,1038.00
2024-02-22T11:50:43.558Z,1036.00
2024-02-22T11:51:43.643Z,1025.00
2024-02-22T11:52:43.741Z,1021.00
2024-02-22T11:53:43.709Z,1009.00
2024-02-22T11:54:43.784Z,1001.00
2024-02-22T11:55:43.857Z,997.00
2024-02-22T11:56:43.905Z,999.00
2024-02-22T11:57:43.969Z,999.00
2024-02-22T11:58:44.090Z,997.00
2024-02-22T11:59:44.074Z,1034.00
2024-02-22T12:00:44.091Z,1017.00
2024-02-22T12:01:44.168Z,1008.00
2024-02-22T12:02:44.185Z,1006.00
2024-02-22T12:03:44.276Z,1000.00
2024-02-22T12:04:44.299Z,997.00
2024-02-22T12:05:44.455Z,998.00
2024-02-22T12:06:44.473Z,1000.00
2024-02-22T12:07:44.473Z,1003.00
2024-02-22T12:08:44.441Z,1003.00
2024-02-22T12:09:44.460Z,998.00
2024-02-22T12:10:44.642Z,989.00
2024-02-22T12:11:44.691Z,985.00
2024-02-22T12:12:44.630Z,987.00
2024-02-22T12:13:44.687Z,993.00
2024-02-22T12:14:44.720Z,993.00
2024-02-22T12:15:44.792Z,991.00
2024-02-22T12:16:44.783Z,999.00
2024-02-22T12:17:44.835Z,1030.00
2024-02-22T12:18:44.847Z,1022.00
2024-02-22T12:19:44.891Z,1003.00
2024-02-22T12:20:44.988Z,1002.00
2024-02-22T12:21:44.959Z,972.00
2024-02-22T12:22:45.041Z,961.00
2024-02-22T12:23:45.080Z,961.00
2024-02-22T12:24:45.110Z,873.00
2024-02-22T12:25:45.225Z,885.00
2024-02-22T12:26:45.195Z,904.00